createdAt,value
2019-05-30T00:00:29.212Z,98594.11
2019-05-30T00:02:58.706Z,98589.87
2019-05-30T00:05:28.169Z,98590.27
2019-05-30T00:07:58.203Z,98583.02
2019-05-30T00:10:27.612Z,98584.77
2019-05-30T00:12:57.068Z,98588.68
2019-05-30T00:15:26.502Z,98593.44
2019-05-30T00:17:56.707Z,98597.32
2019-05-30T00:20:26.227Z,98601.11
2019-05-30T00:22:56.665Z,98597.27
2019-05-30T00:25:26.364Z,98591.23
2019-05-30T00:27:56.804Z,98589.97
2019-05-30T00:30:26.429Z,98597.30
2019-05-30T00:32:57.142Z,98595.17
2019-05-30T00:35:26.766Z,98602.05
2019-05-30T00:37:56.210Z,98602.88
2019-05-30T00:40:25.638Z,98600.75
2019-05-30T00:42:55.880Z,98606.77
2019-05-30T00:45:25.291Z,98601.22
2019-05-30T00:47:55.947Z,98598.22
2019-05-30T00:50:25.460Z,98591.77
2019-05-30T00:52:56.338Z,98595.20
2019-05-30T00:55:25.879Z,98588.77
2019-05-30T00:57:56.643Z,98589.59
2019-05-30T01:00:41.974Z,98586.61
2019-05-30T01:02:59.887Z,98584.86
2019-05-30T01:05:28.822Z,98592.16
2019-05-30T01:07:58.791Z,98583.63
2019-05-30T01:10:28.209Z,98586.22
2019-05-30T01:12:59.778Z,98582.38
2019-05-30T01:15:28.813Z,98582.78
2019-05-30T01:17:59.056Z,98578.90
2019-05-30T01:20:28.568Z,98573.78
2019-05-30T01:22:59.171Z,98574.20
2019-05-30T01:25:28.851Z,98568.21
2019-05-30T01:27:59.491Z,98570.77
2019-05-30T01:30:29.018Z,98558.33
2019-05-30T01:32:59.659Z,98563.52
2019-05-30T01:35:29.084Z,98563.98
2019-05-30T01:37:59.664Z,98558.84
2019-05-30T01:40:29.133Z,98561.90
2019-05-30T01:42:59.827Z,98563.98
2019-05-30T01:45:29.388Z,98564.02
2019-05-30T01:48:00.009Z,98560.61
2019-05-30T01:50:29.547Z,98560.19
2019-05-30T01:52:58.977Z,98557.62
2019-05-30T01:55:28.435Z,98556.74
2019-05-30T01:57:58.725Z,98554.20
2019-05-30T02:00:39.845Z,98553.78
2019-05-30T02:03:10.158Z,98551.22
2019-05-30T02:05:39.751Z,98551.64
2019-05-30T02:08:10.052Z,98556.32
2019-05-30T02:10:39.681Z,98559.77
2019-05-30T02:13:09.812Z,98550.35
2019-05-30T02:15:39.626Z,98555.48
2019-05-30T02:18:10.030Z,98559.79
2019-05-30T02:20:39.664Z,98560.22
2019-05-30T02:23:09.970Z,98554.66
2019-05-30T02:25:40.274Z,98556.81
2019-05-30T02:28:10.374Z,98562.38
2019-05-30T02:30:39.890Z,98556.82
2019-05-30T02:33:12.348Z,98564.95
2019-05-30T02:35:41.350Z,98559.38
2019-05-30T02:38:11.934Z,98562.80
2019-05-30T02:40:41.621Z,98565.38
2019-05-30T02:43:12.088Z,98559.81
2019-05-30T02:45:42.045Z,98561.52
2019-05-30T02:48:12.241Z,98570.51
2019-05-30T02:50:42.339Z,98573.92
2019-05-30T02:53:13.139Z,98574.35
2019-05-30T02:55:43.143Z,98581.63
2019-05-30T02:58:13.149Z,98585.02
2019-05-30T03:00:42.818Z,98585.45
2019-05-30T03:03:14.257Z,98581.61
2019-05-30T03:05:43.515Z,98580.35
2019-05-30T03:08:14.380Z,98581.19
2019-05-30T03:10:44.303Z,98584.61
2019-05-30T03:13:13.913Z,98586.75
2019-05-30T03:15:43.468Z,98592.32
2019-05-30T03:18:15.038Z,98591.87
2019-05-30T03:20:44.832Z,98588.91
2019-05-30T03:23:15.018Z,98591.02
2019-05-30T03:25:44.604Z,98585.45
2019-05-30T03:28:14.091Z,98583.77
2019-05-30T03:30:45.708Z,98585.47
2019-05-30T03:33:36.061Z,98593.18
2019-05-30T03:35:46.710Z,98585.88
2019-05-30T03:38:16.178Z,98585.48
2019-05-30T03:40:45.679Z,98587.59
2019-05-30T03:43:15.958Z,98590.16
2019-05-30T03:45:45.743Z,98589.74
2019-05-30T03:48:16.901Z,98587.62
2019-05-30T03:50:50.079Z,98592.72
2019-05-30T03:53:19.856Z,98597.43
2019-05-30T03:55:53.639Z,98597.02
2019-05-30T03:58:33.451Z,98595.33
2019-05-30T04:01:12.465Z,98588.04
2019-05-30T04:04:12.111Z,98591.46
2019-05-30T04:06:51.572Z,98595.30
2019-05-30T04:09:25.066Z,98595.72
2019-05-30T04:12:29.113Z,98594.88
2019-05-30T04:15:03.265Z,98597.86
2019-05-30T04:17:32.689Z,98591.84
2019-05-30T04:20:02.143Z,98596.07
2019-05-30T04:22:31.582Z,98596.05
2019-05-30T04:25:01.014Z,98591.30
2019-05-30T04:27:30.461Z,98597.28
2019-05-30T04:29:59.891Z,98592.55
2019-05-30T04:32:29.358Z,98598.44
2019-05-30T04:34:58.798Z,98595.00
2019-05-30T04:37:28.224Z,98600.91
2019-05-30T04:39:57.672Z,98601.33
2019-05-30T04:42:27.133Z,98605.09
2019-05-30T04:44:58.563Z,98605.94
2019-05-30T04:47:27.919Z,98603.81
2019-05-30T04:49:57.361Z,98597.70
2019-05-30T04:52:26.809Z,98595.56
2019-05-30T04:54:56.249Z,98608.34
2019-05-30T04:57:27.261Z,98601.40
2019-05-30T04:59:56.803Z,98602.64
2019-05-30T05:02:26.312Z,98598.28
2019-05-30T05:04:55.776Z,98602.82
2019-05-30T05:07:25.203Z,98600.94
2019-05-30T05:09:54.652Z,98602.02
2019-05-30T05:12:24.261Z,98598.75
2019-05-30T05:14:53.694Z,98599.45
2019-05-30T05:17:23.262Z,98606.42
2019-05-30T05:19:52.659Z,98598.22
2019-05-30T05:22:23.233Z,98600.83
2019-05-30T05:24:52.741Z,98606.57
2019-05-30T05:27:22.171Z,98598.10
2019-05-30T05:29:51.621Z,98600.02
2019-05-30T05:32:21.067Z,98600.70
2019-05-30T05:34:52.145Z,98600.34
2019-05-30T05:37:21.733Z,98597.39
2019-05-30T05:39:51.171Z,98601.72
2019-05-30T05:42:20.606Z,98592.33
2019-05-30T05:44:50.057Z,98599.31
2019-05-30T05:47:20.458Z,98595.30
2019-05-30T05:49:49.932Z,98597.98
2019-05-30T05:52:19.386Z,98592.73
2019-05-30T05:54:48.827Z,98597.13
2019-05-30T05:57:18.880Z,98593.16
2019-05-30T05:59:48.306Z,98591.17
2019-05-30T06:02:19.282Z,98602.42
2019-05-30T06:04:48.777Z,98594.50
2019-05-30T06:07:18.275Z,98604.80
2019-05-30T06:09:47.665Z,98599.77
2019-05-30T06:12:17.611Z,98599.67
2019-05-30T06:14:47.144Z,98602.06
2019-05-30T06:17:16.999Z,98600.81
2019-05-30T06:19:47.049Z,98602.23
2019-05-30T06:22:17.404Z,98606.64
2019-05-30T06:24:46.949Z,98603.29
2019-05-30T06:27:16.403Z,98607.53
2019-05-30T06:29:46.095Z,98611.81
2019-05-30T06:32:15.539Z,98604.98
2019-05-30T06:34:44.995Z,98610.53
2019-05-30T06:37:14.483Z,98609.86
2019-05-30T06:39:43.917Z,98612.44
2019-05-30T06:42:13.356Z,98616.84
2019-05-30T06:44:42.815Z,98616.16
2019-05-30T06:47:12.539Z,98610.98
2019-05-30T06:49:41.975Z,98609.74
2019-05-30T06:52:11.439Z,98607.52
2019-05-30T06:54:40.894Z,98604.54
2019-05-30T06:57:10.326Z,98607.03
2019-05-30T06:59:39.773Z,98609.41
2019-05-30T07:02:09.380Z,98605.07
2019-05-30T07:04:50.995Z,98605.70
2019-05-30T07:07:10.325Z,98613.14
2019-05-30T07:09:39.956Z,98609.95
2019-05-30T07:12:11.950Z,98611.77
2019-05-30T07:14:40.555Z,98614.47
2019-05-30T07:17:10.020Z,98617.61
2019-05-30T07:19:39.453Z,98604.70
2019-05-30T07:22:08.986Z,98610.23
2019-05-30T07:24:38.427Z,98607.60
2019-05-30T07:27:07.872Z,98608.55
2019-05-30T07:29:37.333Z,98618.53
2019-05-30T07:32:06.839Z,98617.80
2019-05-30T07:34:36.275Z,98625.38
2019-05-30T07:37:05.733Z,98619.89
2019-05-30T07:39:37.404Z,98622.29
2019-05-30T07:42:06.937Z,98617.03
2019-05-30T07:44:36.466Z,98620.28
2019-05-30T07:47:05.970Z,98615.72
2019-05-30T07:49:35.429Z,98620.67
2019-05-30T07:52:05.036Z,98613.72
2019-05-30T07:54:35.171Z,98612.83
2019-05-30T07:57:05.193Z,98609.59
2019-05-30T07:59:34.808Z,98610.61
2019-05-30T08:02:04.405Z,98610.08
2019-05-30T08:04:34.175Z,98606.39
2019-05-30T08:07:03.607Z,98607.44
2019-05-30T08:09:33.041Z,98609.88
2019-05-30T08:12:02.501Z,98604.55
2019-05-30T08:14:33.176Z,98609.75
2019-05-30T08:17:02.750Z,98607.75
2019-05-30T08:19:32.709Z,98607.30
2019-05-30T08:22:03.354Z,98610.57
2019-05-30T08:24:32.860Z,98606.48
2019-05-30T08:27:02.307Z,98605.48
2019-05-30T08:29:32.179Z,98605.91
2019-05-30T08:32:01.677Z,98608.39
2019-05-30T08:34:31.119Z,98602.86
2019-05-30T08:37:00.555Z,98601.09
2019-05-30T08:39:30.906Z,98596.05
2019-05-30T08:42:00.311Z,98597.47
2019-05-30T08:44:29.766Z,98597.58
2019-05-30T08:46:59.202Z,98596.83
2019-05-30T08:49:29.823Z,98594.38
2019-05-30T08:51:59.270Z,98596.59
2019-05-30T08:54:28.726Z,98591.97
2019-05-30T08:56:58.164Z,98598.19
2019-05-30T08:59:27.602Z,98598.68
2019-05-30T09:01:57.282Z,98594.56
2019-05-30T09:04:26.728Z,98591.49
2019-05-30T09:06:56.418Z,98592.42
2019-05-30T09:09:25.875Z,98588.58
2019-05-30T09:11:55.313Z,98591.23
2019-05-30T09:14:24.761Z,98591.14
2019-05-30T09:16:55.030Z,98589.16
2019-05-30T09:19:24.609Z,98586.33
2019-05-30T09:21:54.059Z,98590.59
2019-05-30T09:24:23.510Z,98590.92
2019-05-30T09:26:52.950Z,98587.69
2019-05-30T09:29:22.388Z,98590.00
2019-05-30T09:31:51.839Z,98585.88
2019-05-30T09:36:49.846Z,98592.13
2019-05-30T09:39:19.303Z,98591.56
2019-05-30T09:41:49.849Z,98590.52
2019-05-30T09:44:19.366Z,98585.41
2019-05-30T09:46:48.808Z,98583.74
2019-05-30T09:49:18.263Z,98583.50
2019-05-30T09:51:48.909Z,98585.90
2019-05-30T09:54:18.446Z,98590.13
2019-05-30T09:56:48.556Z,98590.73
2019-05-30T09:59:18.005Z,98585.64
2019-05-30T10:01:48.082Z,98590.09
2019-05-30T10:04:17.649Z,98588.70
2019-05-30T10:06:47.105Z,98589.67
2019-05-30T10:09:16.544Z,98591.41
2019-05-30T10:11:47.157Z,98592.39
2019-05-30T10:14:16.706Z,98586.77
2019-05-30T10:16:52.434Z,98585.32
2019-05-30T10:19:17.344Z,98587.17
2019-05-30T10:21:47.180Z,98579.03
2019-05-30T10:24:16.707Z,98582.38
2019-05-30T10:26:47.164Z,98580.05
2019-05-30T10:29:16.671Z,98579.81
2019-05-30T10:31:46.522Z,98571.00
2019-05-30T10:34:15.946Z,98583.86
2019-05-30T10:36:47.192Z,98586.09
2019-05-30T10:39:16.687Z,98588.69
2019-05-30T10:41:47.483Z,98591.68
2019-05-30T10:44:17.043Z,98587.45
2019-05-30T10:46:48.613Z,98586.74
2019-05-30T10:49:31.485Z,98587.72
2019-05-30T10:51:49.621Z,98586.88
2019-05-30T10:54:19.463Z,98586.55
2019-05-30T10:56:49.970Z,98595.42
2019-05-30T10:59:19.511Z,98586.59
2019-05-30T11:01:50.241Z,98590.79
2019-05-30T11:04:19.945Z,98592.19
2019-05-30T11:07:10.377Z,98595.72
2019-05-30T11:09:35.486Z,98596.91
2019-05-30T11:12:05.011Z,98590.31
2019-05-30T11:14:34.447Z,98599.28
2019-05-30T11:17:03.891Z,98597.89
2019-05-30T11:19:33.343Z,98603.18
2019-05-30T11:22:02.777Z,98600.53
2019-05-30T11:24:32.229Z,98595.52
2019-05-30T11:27:01.668Z,98596.91
2019-05-30T11:29:31.170Z,98591.68
2019-05-30T11:32:00.566Z,98586.72
2019-05-30T11:34:30.020Z,98596.43
2019-05-30T11:37:18.038Z,98595.28
2019-05-30T11:39:30.609Z,98596.70
2019-05-30T11:42:00.044Z,98604.79
2019-05-30T11:44:29.498Z,98592.75
2019-05-30T11:46:59.831Z,98583.59
2019-05-30T11:49:29.269Z,98595.75
2019-05-30T11:51:59.881Z,98582.82
2019-05-30T11:54:29.414Z,98589.59
2019-05-30T11:56:58.863Z,98585.72
2019-05-30T11:59:28.310Z,98593.56
2019-05-30T12:01:58.507Z,98600.28
2019-05-30T12:04:27.972Z,98597.23
2019-05-30T12:06:57.423Z,98607.59
2019-05-30T12:09:26.877Z,98611.84
2019-05-30T12:11:57.403Z,98610.96
2019-05-30T12:14:26.946Z,98602.53
2019-05-30T12:16:57.336Z,98606.05
2019-05-30T12:19:26.832Z,98602.50
2019-05-30T12:21:56.334Z,98609.94
2019-05-30T12:24:25.779Z,98607.48
2019-05-30T12:26:56.001Z,98607.17
2019-05-30T12:29:25.478Z,98610.72
2019-05-30T12:31:57.533Z,98610.12
2019-05-30T12:34:26.097Z,98618.66
2019-05-30T12:36:56.432Z,98622.56
2019-05-30T12:39:25.851Z,98622.13
2019-05-30T12:41:55.350Z,98620.91
2019-05-30T12:44:24.801Z,98617.07
2019-05-30T12:46:55.431Z,98614.48
2019-05-30T12:49:24.964Z,98616.33
2019-05-30T12:51:54.401Z,98611.91
2019-05-30T12:54:23.857Z,98606.38
2019-05-30T12:56:54.484Z,98608.75
2019-05-30T12:59:24.025Z,98614.32
2019-05-30T13:01:54.674Z,98619.95
2019-05-30T13:04:24.207Z,98611.86
2019-05-30T13:06:54.780Z,98612.97
2019-05-30T13:09:24.805Z,98601.82
2019-05-30T13:11:54.348Z,98601.81
2019-05-30T13:14:23.768Z,98605.19
2019-05-30T13:16:53.218Z,98605.34
2019-05-30T13:19:22.661Z,98606.72
2019-05-30T13:21:53.835Z,98613.36
2019-05-30T13:24:23.331Z,98611.63
2019-05-30T13:26:52.724Z,98607.94
2019-05-30T13:29:22.166Z,98607.43
2019-05-30T13:31:51.627Z,98610.75
2019-05-30T13:34:21.071Z,98612.64
2019-05-30T13:36:50.526Z,98609.98
2019-05-30T13:39:19.963Z,98612.45
2019-05-30T13:41:49.401Z,98616.39
2019-05-30T13:44:18.860Z,98609.02
2019-05-30T13:46:48.635Z,98607.89
2019-05-30T13:49:18.075Z,98614.14
2019-05-30T13:51:47.525Z,98612.34
2019-05-30T13:54:17.222Z,98612.30
2019-05-30T13:56:46.679Z,98619.07
2019-05-30T13:59:16.116Z,98620.50
2019-05-30T14:01:45.560Z,98613.14
2019-05-30T14:04:15.016Z,98611.28
2019-05-30T14:06:44.451Z,98610.84
2019-05-30T14:09:13.917Z,98609.05
2019-05-30T14:11:43.341Z,98611.31
2019-05-30T14:14:12.790Z,98607.98
2019-05-30T14:16:42.812Z,98601.86
2019-05-30T14:19:13.020Z,98608.61
2019-05-30T14:21:42.482Z,98608.50
2019-05-30T14:24:11.927Z,98606.87
2019-05-30T14:26:41.362Z,98610.69
2019-05-30T14:29:11.967Z,98601.06
2019-05-30T14:31:41.451Z,98601.20
2019-05-30T14:34:12.162Z,98610.23
2019-05-30T14:36:41.726Z,98610.23
2019-05-30T14:39:11.323Z,98611.32
2019-05-30T14:41:40.708Z,98610.70
2019-05-30T14:44:10.178Z,98608.42
2019-05-30T14:46:39.622Z,98608.14
2019-05-30T14:49:09.058Z,98608.91
2019-05-30T14:51:38.529Z,98608.24
2019-05-30T14:54:08.866Z,98611.58
2019-05-30T14:56:38.297Z,98614.25
2019-05-30T14:59:08.883Z,98612.63
2019-05-30T15:01:38.365Z,98606.45
2019-05-30T15:04:07.803Z,98607.58
2019-05-30T15:06:37.236Z,98605.98
2019-05-30T15:09:20.156Z,98598.69
2019-05-30T15:11:38.731Z,98598.63
2019-05-30T15:14:08.737Z,98599.36
2019-05-30T15:16:38.200Z,98594.72
2019-05-30T15:19:08.142Z,98586.95
2019-05-30T15:21:37.541Z,98593.51
2019-05-30T15:24:07.728Z,98597.45
2019-05-30T15:26:37.226Z,98589.08
2019-05-30T15:29:06.656Z,98594.10
2019-05-30T15:31:36.098Z,98590.91
2019-05-30T15:34:06.417Z,98593.88
2019-05-30T15:36:35.905Z,98595.11
2019-05-30T15:39:08.938Z,98596.06
2019-05-30T15:41:38.397Z,98596.41
2019-05-30T15:44:07.838Z,98598.51
2019-05-30T15:46:37.453Z,98601.50
2019-05-30T15:49:08.067Z,98597.73
2019-05-30T15:51:37.622Z,98594.72
2019-05-30T15:54:07.075Z,98601.63
2019-05-30T15:56:36.585Z,98601.66
2019-05-30T15:59:06.836Z,98606.95
2019-05-30T16:01:36.366Z,98601.56
2019-05-30T16:04:05.805Z,98602.06
2019-05-30T16:06:35.239Z,98603.55
2019-05-30T16:09:06.507Z,98609.15
2019-05-30T16:11:36.479Z,98604.16
2019-05-30T16:14:05.985Z,98608.36
2019-05-30T16:16:40.127Z,98604.69
2019-05-30T16:19:15.574Z,98604.81
2019-05-30T16:21:37.770Z,98609.09
2019-05-30T16:24:07.233Z,98606.94
2019-05-30T16:26:36.688Z,98606.59
2019-05-30T16:29:06.142Z,98610.02
2019-05-30T16:31:35.605Z,98607.03
2019-05-30T16:34:05.051Z,98607.74
2019-05-30T16:36:34.492Z,98610.95
2019-05-30T16:39:05.619Z,98606.59
2019-05-30T16:41:35.126Z,98606.00
2019-05-30T16:44:04.633Z,98611.20
2019-05-30T16:46:34.116Z,98611.36
2019-05-30T16:49:03.556Z,98605.64
2019-05-30T16:51:32.992Z,98605.99
2019-05-30T16:54:02.760Z,98604.78
2019-05-30T16:56:32.208Z,98599.16
2019-05-30T16:59:01.655Z,98605.44
2019-05-30T17:01:31.132Z,98604.28
2019-05-30T17:04:00.567Z,98614.76
2019-05-30T17:06:30.001Z,98608.65
2019-05-30T17:08:59.449Z,98605.52
2019-05-30T17:11:28.894Z,98606.13
2019-05-30T17:13:58.350Z,98598.23
2019-05-30T17:16:27.779Z,98598.14
2019-05-30T17:18:57.246Z,98593.45
2019-05-30T17:21:26.869Z,98596.05
2019-05-30T17:23:56.268Z,98596.73
2019-05-30T17:26:25.721Z,98590.02
2019-05-30T17:28:55.158Z,98593.99
2019-05-30T17:31:26.063Z,98595.16
2019-05-30T17:33:55.636Z,98587.88
2019-05-30T17:36:26.218Z,98590.95
2019-05-30T17:38:55.684Z,98598.47
2019-05-30T17:41:25.143Z,98599.52
2019-05-30T17:43:54.582Z,98602.39
2019-05-30T17:46:25.634Z,98606.07
2019-05-30T17:48:55.147Z,98607.83
2019-05-30T17:51:25.868Z,98611.47
2019-05-30T17:53:55.450Z,98614.89
2019-05-30T17:56:26.030Z,98617.73
2019-05-30T17:58:57.055Z,98617.66
2019-05-30T18:01:26.429Z,98611.75
2019-05-30T18:03:55.862Z,98617.30
2019-05-30T18:06:26.473Z,98622.37
2019-05-30T18:08:56.044Z,98610.59
2019-05-30T18:11:25.524Z,98612.20
2019-05-30T18:13:54.964Z,98615.75
2019-05-30T18:16:25.176Z,98621.05
2019-05-30T18:18:54.631Z,98631.21
2019-05-30T18:21:24.074Z,98631.39
2019-05-30T18:23:53.523Z,98632.59
2019-05-30T18:26:23.479Z,98633.42
2019-05-30T18:28:52.993Z,98632.98
2019-05-30T18:31:23.813Z,98633.45
2019-05-30T18:33:53.436Z,98633.39
2019-05-30T18:36:24.246Z,98635.16
2019-05-30T18:38:53.726Z,98633.91
2019-05-30T18:41:24.539Z,98632.39
2019-05-30T18:43:53.983Z,98640.31
2019-05-30T18:46:23.420Z,98634.28
2019-05-30T18:48:52.908Z,98642.14
2019-05-30T18:51:22.331Z,98639.52
2019-05-30T18:53:51.790Z,98639.09
2019-05-30T18:56:21.232Z,98643.89
2019-05-30T18:58:50.685Z,98637.30
2019-05-30T19:01:20.156Z,98635.78
2019-05-30T19:03:49.610Z,98642.25
2019-05-30T19:06:19.047Z,98642.20
2019-05-30T19:08:48.499Z,98645.99
2019-05-30T19:11:27.403Z,98642.06
2019-05-30T19:13:49.121Z,98640.14
2019-05-30T19:16:18.574Z,98639.56
2019-05-30T19:18:48.003Z,98643.47
2019-05-30T19:21:17.457Z,98653.65
2019-05-30T19:23:47.012Z,98656.31
2019-05-30T19:26:16.439Z,98661.48
2019-05-30T19:28:45.882Z,98662.45
2019-05-30T19:31:15.360Z,98662.07
2019-05-30T19:33:44.832Z,98665.99
2019-05-30T19:36:14.238Z,98673.23
2019-05-30T19:38:43.704Z,98676.89
2019-05-30T19:41:13.163Z,98676.18
2019-05-30T19:43:42.628Z,98681.91
2019-05-30T19:46:13.271Z,98677.36
2019-05-30T19:48:42.889Z,98677.85
2019-05-30T19:51:12.328Z,98688.13
2019-05-30T19:53:41.789Z,98688.13
2019-05-30T19:56:11.238Z,98691.47
2019-05-30T19:58:40.671Z,98696.83
2019-05-30T20:01:10.119Z,98706.15
2019-05-30T20:03:45.149Z,98703.42
2019-05-30T20:06:10.740Z,98704.56
2019-05-30T20:08:51.383Z,98704.46
2019-05-30T20:11:11.723Z,98709.08
2019-05-30T20:13:41.339Z,98713.95
2019-05-30T20:16:10.717Z,98703.00
2019-05-30T20:18:40.166Z,98702.80
2019-05-30T20:21:09.605Z,98701.25
2019-05-30T20:23:50.638Z,98700.86
2019-05-30T20:26:10.228Z,98698.05
2019-05-30T20:28:40.819Z,98702.39
2019-05-30T20:31:10.296Z,98700.36
2019-05-30T20:33:40.597Z,98698.02
2019-05-30T20:36:10.089Z,98701.36
2019-05-30T20:38:40.400Z,98698.17
2019-05-30T20:41:10.038Z,98699.36
2019-05-30T20:43:39.492Z,98702.00
2019-05-30T20:46:22.321Z,98701.16
2019-05-30T20:48:42.970Z,98700.19
2019-05-30T20:51:20.808Z,98697.14
2019-05-30T20:53:44.906Z,98707.84
2019-05-30T20:56:13.650Z,98706.89
2019-05-30T20:58:43.875Z,98703.75
2019-05-30T21:01:13.318Z,98700.41
2019-05-30T21:03:43.815Z,98699.92
2019-05-30T21:06:14.226Z,98704.38
2019-05-30T21:08:44.034Z,98701.22
2019-05-30T21:11:13.727Z,98704.95
2019-05-30T21:13:44.312Z,98708.28
2019-05-30T21:16:15.876Z,98710.63
2019-05-30T21:18:47.005Z,98713.05
2019-05-30T21:21:16.441Z,98708.09
2019-05-30T21:23:46.638Z,98715.80
2019-05-30T21:26:16.046Z,98717.20
2019-05-30T21:28:45.509Z,98713.81
2019-05-30T21:31:15.022Z,98716.16
2019-05-30T21:33:45.889Z,98716.97
2019-05-30T21:36:15.618Z,98716.45
2019-05-30T21:38:46.086Z,98724.11
2019-05-30T21:41:15.589Z,98722.19
2019-05-30T21:43:45.031Z,98721.14
2019-05-30T21:46:14.490Z,98730.25
2019-05-30T21:48:44.976Z,98727.34
2019-05-30T21:51:14.436Z,98732.59
2019-05-30T21:53:43.886Z,98735.03
2019-05-30T21:56:13.580Z,98729.73
2019-05-30T21:58:44.091Z,98726.50
2019-05-30T22:01:26.662Z,98724.55
2019-05-30T22:03:56.105Z,98729.83
2019-05-30T22:06:25.556Z,98727.13
2019-05-30T22:08:55.163Z,98726.38
2019-05-30T22:11:24.675Z,98729.73
2019-05-30T22:13:54.130Z,98727.75
2019-05-30T22:16:23.718Z,98729.31
2019-05-30T22:18:53.466Z,98731.55
2019-05-30T22:21:23.005Z,98729.80
2019-05-30T22:23:52.627Z,98730.16
2019-05-30T22:26:22.050Z,98726.93
2019-05-30T22:28:52.710Z,98724.00
2019-05-30T22:31:22.254Z,98728.16
2019-05-30T22:33:53.116Z,98730.04
2019-05-30T22:36:22.680Z,98724.14
2019-05-30T22:38:53.132Z,98721.70
2019-05-30T22:41:22.733Z,98724.00
2019-05-30T22:43:52.950Z,98723.34
2019-05-30T22:46:22.450Z,98728.08
2019-05-30T22:48:52.926Z,98727.95
2019-05-30T22:51:22.685Z,98720.30
2019-05-30T22:53:53.221Z,98722.63
2019-05-30T22:56:22.796Z,98724.70
2019-05-30T22:58:52.244Z,98724.53
2019-05-30T23:01:21.696Z,98719.50
2019-05-30T23:03:52.265Z,98723.62
2019-05-30T23:06:22.152Z,98718.57
2019-05-30T23:08:52.601Z,98718.34
2019-05-30T23:11:22.131Z,98721.09
2019-05-30T23:13:51.944Z,98723.70
2019-05-30T23:16:21.406Z,98719.48
2019-05-30T23:18:50.851Z,98687.39
2019-05-30T23:21:20.287Z,98719.25
2019-05-30T23:23:51.730Z,98719.70
2019-05-30T23:26:20.915Z,98725.83
2019-05-30T23:28:51.713Z,98726.14
2019-05-30T23:31:21.282Z,98726.50
2019-05-30T23:33:50.721Z,98726.36
2019-05-30T23:36:20.164Z,98725.23
2019-05-30T23:38:50.728Z,98727.92
2019-05-30T23:41:20.230Z,98730.95
2019-05-30T23:43:58.063Z,98725.97
2019-05-30T23:46:20.846Z,98723.45
2019-05-30T23:48:51.478Z,98729.19
2019-05-30T23:51:20.997Z,98725.23
2019-05-30T23:53:50.451Z,98719.25
2019-05-30T23:56:19.885Z,98713.36
2019-05-30T23:58:50.501Z,98715.56
